Time;durP1;ratioP1;P1;durP2;ratioP2;P2;SDS_P1;SDS_P2;PMS_P1;PMS_P2;Temp;Humidity;BMP_temperature;BMP_pressure;BME280_temperature;BME280_humidity;BME280_pressure;Samples;Min_cycle;Max_cycle;Signal;HPM_P1;HPM_P2
2022/07/31 00:01:13;;;;;;;9.40;8.38;;;;;;;19.19;78.67;96946.19;5053361;28;20242;-56
2022/07/31 00:03:40;;;;;;;5.22;4.72;;;;;;;19.12;79.32;96937.25;5056802;28;20295;-55
2022/07/31 00:06:07;;;;;;;3.67;3.38;;;;;;;19.11;79.35;96940.94;5052783;28;20222;-57
2022/07/31 00:08:34;;;;;;;3.55;2.70;;;;;;;19.10;79.01;96936.59;5045947;28;20291;-56
2022/07/31 00:11:01;;;;;;;4.18;2.38;;;;;;;19.04;80.22;96935.50;5045949;28;20247;-56
2022/07/31 00:13:27;;;;;;;4.32;2.10;;;;;;;19.02;79.90;96934.88;5046851;28;20297;-55
2022/07/31 00:15:55;;;;;;;3.22;2.80;;;;;;;18.96;80.77;96934.78;5046358;28;20261;-55
2022/07/31 00:18:22;;;;;;;2.28;2.17;;;;;;;18.92;80.59;96933.50;5046149;28;20268;-55
2022/07/31 00:20:49;;;;;;;2.90;2.70;;;;;;;18.84;82.31;96931.78;5045532;28;20294;-54
2022/07/31 00:23:15;;;;;;;4.57;2.38;;;;;;;18.79;82.13;96935.00;5045628;28;20231;-55
2022/07/31 00:25:42;;;;;;;3.65;2.28;;;;;;;18.78;82.42;96932.50;5046473;28;20227;-53
2022/07/31 00:28:09;;;;;;;2.83;2.50;;;;;;;18.78;83.57;96927.97;5046357;28;20645;-53
2022/07/31 00:30:35;;;;;;;2.60;2.50;;;;;;;18.71;83.29;96921.69;5044872;28;20271;-54
2022/07/31 00:33:03;;;;;;;2.42;2.22;;;;;;;18.65;84.30;96929.66;5046034;28;20303;-52
2022/07/31 00:35:30;;;;;;;3.85;2.63;;;;;;;18.68;83.29;96927.44;5045896;28;20195;-54
2022/07/31 00:37:57;;;;;;;2.70;2.45;;;;;;;18.64;83.11;96928.81;5046703;28;20208;-53
2022/07/31 00:40:24;;;;;;;3.47;2.47;;;;;;;18.60;83.78;96930.19;5046581;28;20318;-53
2022/07/31 00:42:50;;;;;;;3.20;2.10;;;;;;;18.59;84.06;96923.22;5046948;28;20304;-53
2022/07/31 00:45:17;;;;;;;2.30;2.10;;;;;;;18.58;84.86;96926.06;5046446;28;20287;-53
2022/07/31 00:47:43;;;;;;;3.10;2.80;;;;;;;18.59;83.59;96925.88;5046957;28;20753;-54
2022/07/31 00:50:12;;;;;;;3.08;2.60;;;;;;;18.51;85.20;96925.97;5047030;28;20619;-53
2022/07/31 00:52:39;;;;;;;2.92;2.50;;;;;;;18.50;84.68;96915.41;5047377;28;20284;-53
2022/07/31 00:55:07;;;;;;;4.18;2.72;;;;;;;18.48;84.88;96920.13;5048436;28;20687;-52
2022/07/31 00:57:34;;;;;;;4.35;2.38;;;;;;;18.40;85.66;96918.38;5049262;28;20252;-53
2022/07/31 01:00:00;;;;;;;2.60;2.40;;;;;;;18.32;86.47;96916.59;5067456;28;20212;-54
2022/07/31 01:02:28;;;;;;;3.80;2.55;;;;;;;18.29;86.54;96914.31;5076304;28;20183;-53
2022/07/31 01:04:54;;;;;;;2.60;2.50;;;;;;;18.25;86.68;96918.34;5076399;28;20176;-54
2022/07/31 01:07:22;;;;;;;2.20;2.00;;;;;;;18.23;87.56;96922.25;5075802;28;20183;-54
2022/07/31 01:09:49;;;;;;;2.88;2.47;;;;;;;18.25;85.67;96922.88;5076671;28;20191;-53
2022/07/31 01:12:21;;;;;;;2.38;2.10;;;;;;;18.25;86.51;96918.34;5068905;28;20195;-53
2022/07/31 01:14:51;;;;;;;2.88;2.65;;;;;;;18.23;86.45;96915.06;5068013;28;20204;-53
2022/07/31 01:17:19;;;;;;;3.95;2.55;;;;;;;18.27;85.43;96912.84;5064648;28;20200;-53
2022/07/31 01:19:49;;;;;;;2.40;2.30;;;;;;;18.26;85.03;96913.84;5059190;28;20266;-53
2022/07/31 01:22:34;;;;;;;2.55;2.35;;;;;;;18.24;86.25;96913.22;5072879;28;20198;-53
2022/07/31 01:25:07;;;;;;;3.72;2.42;;;;;;;18.18;87.12;96913.91;5049906;28;20215;-53
2022/07/31 01:27:55;;;;;;;2.58;2.40;;;;;;;18.13;87.16;96914.50;5044228;28;20195;-54
2022/07/31 01:30:26;;;;;;;3.10;2.40;;;;;;;18.09;87.31;96915.03;5045034;28;21539;-54
2022/07/31 01:32:54;;;;;;;2.88;2.25;;;;;;;18.04;88.12;96912.06;5044362;28;20203;-53
2022/07/31 01:35:22;;;;;;;2.80;2.65;;;;;;;18.15;86.08;96909.78;5043085;28;20295;-54
2022/07/31 01:37:52;;;;;;;2.40;2.30;;;;;;;18.09;87.53;96915.88;5044828;28;20191;-52
2022/07/31 01:40:23;;;;;;;2.88;2.50;;;;;;;18.09;87.18;96923.06;5043819;28;20660;-53
2022/07/31 01:42:52;;;;;;;2.80;2.60;;;;;;;17.98;88.29;96918.16;5043932;28;20663;-52
2022/07/31 01:45:20;;;;;;;2.33;2.10;;;;;;;17.94;89.66;96922.19;5043354;28;20570;-53
2022/07/31 01:47:49;;;;;;;3.05;2.72;;;;;;;17.92;88.96;96924.25;5044477;28;20571;-55
2022/07/31 01:50:16;;;;;;;2.30;2.20;;;;;;;17.85;90.12;96916.13;5044336;28;20285;-54
2022/07/31 01:52:43;;;;;;;2.58;2.47;;;;;;;17.90;89.12;96922.56;5044008;28;20230;-53
2022/07/31 01:55:11;;;;;;;2.40;2.20;;;;;;;17.92;87.92;96921.56;5043652;28;20222;-54
2022/07/31 01:57:38;;;;;;;2.40;2.20;;;;;;;17.81;89.96;96920.16;5044474;28;20212;-53
2022/07/31 02:00:08;;;;;;;3.80;2.83;;;;;;;17.79;90.36;96920.31;5043505;28;20304;-52
2022/07/31 02:02:36;;;;;;;2.53;2.33;;;;;;;17.74;90.27;96919.22;5044062;28;20282;-53
2022/07/31 02:05:06;;;;;;;2.50;2.30;;;;;;;17.71;90.21;96920.38;5043241;28;20654;-53
2022/07/31 02:07:33;;;;;;;2.40;2.30;;;;;;;17.76;89.36;96926.03;5043384;28;20196;-53
2022/07/31 02:10:00;;;;;;;2.58;2.38;;;;;;;17.79;88.48;96925.69;5043911;28;20212;-53
2022/07/31 02:12:28;;;;;;;2.53;2.42;;;;;;;17.82;88.70;96929.81;5042890;28;20295;-53
2022/07/31 02:14:55;;;;;;;2.95;2.50;;;;;;;17.81;88.29;96933.53;5043215;28;20257;-54
2022/07/31 02:17:22;;;;;;;2.40;2.25;;;;;;;17.81;89.36;96930.88;5044234;28;20220;-53
2022/07/31 02:19:51;;;;;;;3.00;2.63;;;;;;;17.74;90.15;96935.28;5043832;28;20228;-53
2022/07/31 02:22:20;;;;;;;2.35;2.22;;;;;;;17.68;91.46;96933.28;5044153;28;20330;-53
2022/07/31 02:24:46;;;;;;;2.53;2.33;;;;;;;17.64;90.80;96940.03;5046040;28;20199;-53
2022/07/31 02:27:14;;;;;;;2.58;2.38;;;;;;;17.70;89.90;96939.31;5043714;28;20199;-53
2022/07/31 02:29:41;;;;;;;2.47;2.33;;;;;;;17.71;90.26;96938.31;5043833;28;20232;-53
2022/07/31 02:32:08;;;;;;;4.70;2.60;;;;;;;17.66;90.83;96927.31;5044632;28;20281;-53
2022/07/31 02:34:35;;;;;;;2.70;2.20;;;;;;;17.76;89.61;96931.41;5043457;28;20239;-52
2022/07/31 02:37:03;;;;;;;2.67;2.47;;;;;;;17.81;89.45;96929.03;5044064;28;20235;-52
2022/07/31 02:39:32;;;;;;;2.60;2.40;;;;;;;17.82;90.82;96919.97;5043237;28;20288;-53
2022/07/31 02:42:00;;;;;;;3.53;2.40;;;;;;;17.80;91.53;96927.34;5043948;28;20584;-52
2022/07/31 02:44:28;;;;;;;3.42;2.70;;;;;;;17.80;90.66;96913.97;5043460;28;20204;-54
2022/07/31 02:46:54;;;;;;;3.70;2.55;;;;;;;17.81;91.89;96921.00;5043703;28;20195;-53
2022/07/31 02:49:21;;;;;;;2.33;2.22;;;;;;;17.80;91.86;96919.31;5043220;28;20726;-53
2022/07/31 02:51:48;;;;;;;2.70;2.50;;;;;;;17.82;91.43;96919.13;5042779;28;20205;-55
2022/07/31 02:54:14;;;;;;;2.55;2.35;;;;;;;17.80;92.71;96916.66;5043204;28;20589;-53
2022/07/31 02:56:43;;;;;;;3.03;2.58;;;;;;;17.81;91.62;96920.16;5043514;28;20262;-53
2022/07/31 02:59:12;;;;;;;3.53;2.75;;;;;;;17.82;91.36;96924.47;5042768;28;20203;-54
2022/07/31 03:01:39;;;;;;;2.75;2.30;;;;;;;17.79;93.18;96927.50;5042312;28;20301;-52
2022/07/31 03:04:06;;;;;;;2.70;2.50;;;;;;;17.79;92.50;96920.31;5043428;28;20215;-54
2022/07/31 03:06:33;;;;;;;2.58;2.40;;;;;;;17.79;92.40;96925.69;5043387;28;20207;-54
2022/07/31 03:08:59;;;;;;;2.75;2.53;;;;;;;17.80;91.01;96927.34;5042568;28;20199;-54
2022/07/31 03:11:26;;;;;;;2.42;2.22;;;;;;;17.76;92.09;96936.75;5043112;28;20307;-53
2022/07/31 03:13:57;;;;;;;2.78;2.67;;;;;;;17.77;92.01;96932.22;5042795;28;20280;-54
2022/07/31 03:16:24;;;;;;;2.50;2.30;;;;;;;17.78;91.62;96934.72;5041371;28;20279;-52
2022/07/31 03:18:51;;;;;;;2.70;2.42;;;;;;;17.80;91.06;96929.19;5042006;28;20227;-53
2022/07/31 03:21:18;;;;;;;3.65;2.70;;;;;;;17.82;91.25;96929.81;5049254;28;20249;-53
2022/07/31 03:23:45;;;;;;;2.67;2.47;;;;;;;17.78;93.03;96926.69;5060458;28;20203;-53
2022/07/31 03:26:13;;;;;;;3.53;2.60;;;;;;;17.74;93.56;96932.59;5055673;28;20261;-53
2022/07/31 03:28:41;;;;;;;2.75;2.50;;;;;;;17.79;93.47;96928.34;5048115;28;20223;-54
2022/07/31 03:31:09;;;;;;;3.45;2.65;;;;;;;17.77;94.22;96933.06;5041848;28;20803;-53
2022/07/31 03:33:36;;;;;;;2.67;2.58;;;;;;;17.81;93.96;96921.00;5042119;28;20810;-53
2022/07/31 03:36:03;;;;;;;2.47;2.38;;;;;;;17.91;93.21;96928.75;5042423;28;20666;-52
2022/07/31 03:38:32;;;;;;;3.58;3.28;;;;;;;17.97;92.07;96921.84;5041760;28;20636;-54
2022/07/31 03:40:58;;;;;;;6.20;5.60;;;;;;;17.99;92.79;96919.81;5042101;28;20251;-52
2022/07/31 03:43:26;;;;;;;5.50;4.78;;;;;;;17.92;93.52;96920.53;5041501;28;20588;-53
2022/07/31 03:45:53;;;;;;;5.82;3.88;;;;;;;17.94;92.46;96919.53;5042716;28;20207;-53
2022/07/31 03:48:21;;;;;;;4.18;3.22;;;;;;;17.91;92.69;96923.41;5041329;28;20239;-54
2022/07/31 03:50:49;;;;;;;3.08;2.90;;;;;;;17.88;92.51;96927.28;5042207;28;20290;-53
2022/07/31 03:53:16;;;;;;;2.97;2.78;;;;;;;17.87;92.56;96922.94;5049983;28;20231;-54
2022/07/31 03:55:43;;;;;;;2.72;2.60;;;;;;;17.83;92.55;96920.78;5049498;28;20211;-53
2022/07/31 03:58:10;;;;;;;4.47;2.58;;;;;;;17.78;93.26;96934.72;5042480;28;20208;-53
2022/07/31 04:00:37;;;;;;;2.67;2.47;;;;;;;17.75;93.40;96923.53;5047618;28;20235;-54
2022/07/31 04:03:06;;;;;;;2.78;2.58;;;;;;;17.67;94.82;96927.13;5050576;28;20282;-54
2022/07/31 04:05:35;;;;;;;2.63;2.42;;;;;;;17.59;95.40;96924.53;5049103;28;20294;-53
2022/07/31 04:08:01;;;;;;;3.35;3.03;;;;;;;17.60;94.87;96923.53;5041742;28;20208;-57
2022/07/31 04:10:28;;;;;;;3.90;2.55;;;;;;;17.57;94.69;96931.88;5042332;28;20227;-54
2022/07/31 04:12:55;;;;;;;4.25;2.88;;;;;;;17.58;95.21;96936.22;5042543;28;20610;-54
2022/07/31 04:15:22;;;;;;;2.60;2.40;;;;;;;17.63;94.02;96930.34;5042453;28;20294;-52
2022/07/31 04:17:48;;;;;;;2.42;2.13;;;;;;;17.59;93.58;96927.19;5041932;28;20567;-52
2022/07/31 04:20:15;;;;;;;2.70;2.20;;;;;;;17.56;95.36;96929.38;5041940;28;20263;-53
2022/07/31 04:22:43;;;;;;;4.47;2.58;;;;;;;17.47;95.95;96925.06;5041338;28;20207;-52
2022/07/31 04:25:10;;;;;;;2.30;2.20;;;;;;;17.37;96.26;96926.16;5041887;28;20545;-53
2022/07/31 04:27:36;;;;;;;2.95;2.65;;;;;;;17.37;96.44;96930.66;5042283;28;20200;-53
2022/07/31 04:30:04;;;;;;;3.33;2.45;;;;;;;17.39;96.49;96936.69;5045938;28;20343;-52
2022/07/31 04:32:30;;;;;;;2.88;2.70;;;;;;;17.40;96.20;96938.34;5045211;28;20210;-53
2022/07/31 04:34:57;;;;;;;3.55;2.55;;;;;;;17.37;96.74;96941.38;5044870;28;20207;-53
2022/07/31 04:37:24;;;;;;;3.00;2.80;;;;;;;17.36;97.90;96940.53;5044548;28;20317;-53
2022/07/31 04:39:52;;;;;;;2.50;2.40;;;;;;;17.38;97.79;96935.03;5045349;28;20239;-53
2022/07/31 04:42:19;;;;;;;2.80;2.60;;;;;;;17.33;98.27;96929.34;5044180;28;20286;-53
2022/07/31 04:44:46;;;;;;;3.13;2.83;;;;;;;17.41;98.46;96934.66;5044970;28;20230;-53
2022/07/31 04:47:14;;;;;;;3.15;2.85;;;;;;;17.50;97.82;96936.25;5045117;28;20282;-52
2022/07/31 04:49:40;;;;;;;2.50;2.30;;;;;;;17.64;95.86;96943.53;5044628;28;20289;-54
2022/07/31 04:52:07;;;;;;;3.50;2.70;;;;;;;17.94;95.29;96946.28;5044862;28;20242;-53
2022/07/31 04:54:34;;;;;;;2.83;2.63;;;;;;;18.35;92.35;96936.84;5044736;28;20611;-53
2022/07/31 04:57:02;;;;;;;3.42;2.80;;;;;;;18.65;90.09;96946.56;5045236;28;20511;-53
2022/07/31 04:59:29;;;;;;;3.53;2.58;;;;;;;18.97;88.37;96942.63;5045045;28;20290;-53
2022/07/31 05:01:55;;;;;;;2.42;2.33;;;;;;;18.83;89.89;96935.47;5044414;28;20216;-54
2022/07/31 05:04:22;;;;;;;4.65;2.83;;;;;;;18.80;89.44;96936.66;5044738;28;20286;-53
2022/07/31 05:06:51;;;;;;;2.60;2.42;;;;;;;18.76;89.10;96939.91;5044412;28;20550;-52
2022/07/31 05:09:19;;;;;;;2.80;2.60;;;;;;;18.73;90.50;96938.44;5044388;28;20616;-53
2022/07/31 05:11:47;;;;;;;2.88;2.67;;;;;;;18.70;91.36;96940.66;5045215;28;20196;-53
2022/07/31 05:14:16;;;;;;;3.63;2.95;;;;;;;18.83;90.65;96938.13;5044754;28;20273;-52
2022/07/31 05:16:43;;;;;;;2.90;2.70;;;;;;;19.12;88.91;96931.88;5044343;28;20290;-54
2022/07/31 05:19:10;;;;;;;2.92;2.63;;;;;;;19.42;88.34;96933.47;5042800;28;20203;-52
2022/07/31 05:21:37;;;;;;;2.63;2.42;;;;;;;19.73;86.57;96933.16;5044043;28;20589;-52
2022/07/31 05:24:04;;;;;;;2.70;2.50;;;;;;;20.00;84.67;96939.56;5044997;28;20620;-53
2022/07/31 05:26:31;;;;;;;2.85;2.65;;;;;;;20.10;85.00;96942.75;5043720;28;20621;-54
2022/07/31 05:28:59;;;;;;;4.05;2.78;;;;;;;20.17;82.28;96935.56;5044790;28;20295;-54
2022/07/31 05:31:27;;;;;;;2.80;2.60;;;;;;;20.30;83.91;96936.50;5064715;28;20233;-57
2022/07/31 05:33:54;;;;;;;3.10;2.75;;;;;;;20.47;81.41;96941.59;5060753;28;20199;-54
2022/07/31 05:36:21;;;;;;;3.10;2.90;;;;;;;20.58;79.07;96941.03;5053480;28;20577;-53
2022/07/31 05:38:48;;;;;;;3.03;2.70;;;;;;;20.65;79.74;96941.91;5043396;28;20858;-53
2022/07/31 05:41:15;;;;;;;3.38;2.95;;;;;;;20.73;78.57;96942.56;5042738;28;20314;-53
2022/07/31 05:43:41;;;;;;;2.95;2.85;;;;;;;20.83;77.80;96940.34;5043214;28;20648;-53
2022/07/31 05:46:08;;;;;;;3.15;2.95;;;;;;;20.94;78.42;96940.81;5044313;28;20602;-54
2022/07/31 05:48:36;;;;;;;2.90;2.70;;;;;;;21.06;78.04;96931.13;5044379;28;20326;-55
2022/07/31 05:51:03;;;;;;;6.47;3.10;;;;;;;21.22;76.57;96936.19;5044267;28;20254;-52
2022/07/31 05:53:29;;;;;;;2.88;2.67;;;;;;;21.40;76.25;96939.13;5043389;28;20250;-52
2022/07/31 05:55:56;;;;;;;4.97;3.20;;;;;;;21.53;76.76;96944.53;5043476;28;20222;-54
2022/07/31 05:58:22;;;;;;;2.97;2.60;;;;;;;21.89;74.93;96941.50;5044388;28;20289;-54
2022/07/31 06:00:50;;;;;;;3.42;3.10;;;;;;;22.09;72.18;96945.03;5043832;28;20310;-53
2022/07/31 06:03:21;;;;;;;3.08;2.88;;;;;;;22.22;71.22;96942.31;5044052;28;20227;-53
2022/07/31 06:05:50;;;;;;;3.10;2.90;;;;;;;22.42;72.48;96945.00;5043177;28;20199;-55
2022/07/31 06:08:17;;;;;;;3.30;3.10;;;;;;;22.68;70.42;96955.75;5042900;28;20207;-53
2022/07/31 06:10:45;;;;;;;3.20;3.00;;;;;;;22.87;71.03;96956.75;5042385;28;20628;-54
2022/07/31 06:13:12;;;;;;;2.88;2.67;;;;;;;22.93;70.83;96953.19;5043176;28;20212;-53
2022/07/31 06:15:39;;;;;;;2.83;2.63;;;;;;;23.03;70.11;96952.72;5042730;28;20202;-53
2022/07/31 06:18:05;;;;;;;5.40;2.63;;;;;;;23.30;68.22;96946.19;5043217;28;20290;-54
2022/07/31 06:20:32;;;;;;;3.33;3.03;;;;;;;23.24;66.57;96947.88;5042761;28;20223;-52
2022/07/31 06:23:00;;;;;;;3.00;2.80;;;;;;;23.12;67.30;96943.38;5043781;28;20198;-54
2022/07/31 06:25:27;;;;;;;2.78;2.58;;;;;;;22.94;70.41;96951.34;5043096;28;20620;-54
2022/07/31 06:27:54;;;;;;;2.78;2.67;;;;;;;22.78;71.86;96953.44;5043399;28;20386;-52
2022/07/31 06:30:20;;;;;;;2.70;2.60;;;;;;;22.55;72.35;96952.22;5041866;28;20231;-53
2022/07/31 06:32:47;;;;;;;3.13;2.83;;;;;;;22.42;72.63;96961.19;5043905;28;20245;-54
2022/07/31 06:35:15;;;;;;;3.65;2.65;;;;;;;22.23;71.81;96957.47;5041652;28;20683;-54
2022/07/31 06:37:42;;;;;;;3.15;2.85;;;;;;;22.18;71.62;96959.09;5042726;28;20231;-54
2022/07/31 06:40:12;;;;;;;4.97;3.25;;;;;;;22.11;74.07;96961.81;5042936;28;20230;-53
2022/07/31 06:42:39;;;;;;;2.80;2.60;;;;;;;22.25;73.56;96965.31;5043285;28;20228;-55
2022/07/31 06:45:06;;;;;;;2.83;2.63;;;;;;;22.22;73.77;96963.88;5041836;28;20243;-54
2022/07/31 06:47:33;;;;;;;3.90;2.85;;;;;;;22.51;71.35;96957.22;5042990;28;20263;-54
2022/07/31 06:49:59;;;;;;;2.92;2.70;;;;;;;22.65;71.94;96958.84;5042111;28;20207;-55
2022/07/31 06:52:26;;;;;;;2.70;2.50;;;;;;;23.05;72.03;96956.91;5043480;28;20227;-54
2022/07/31 06:54:53;;;;;;;3.33;2.95;;;;;;;22.95;68.67;96953.00;5042904;28;20246;-54
2022/07/31 06:57:21;;;;;;;3.85;2.95;;;;;;;23.29;70.19;96947.22;5044516;28;20260;-53
2022/07/31 06:59:47;;;;;;;3.10;2.75;;;;;;;23.76;68.94;96954.91;5042478;28;20214;-53
2022/07/31 07:02:14;;;;;;;4.63;2.80;;;;;;;24.11;64.91;96954.41;5042854;28;20284;-52
2022/07/31 07:04:41;;;;;;;3.00;2.80;;;;;;;24.37;66.11;96959.66;5042173;28;20584;-53
2022/07/31 07:07:07;;;;;;;3.25;2.95;;;;;;;24.48;64.40;96963.50;5042264;28;20296;-52
2022/07/31 07:09:34;;;;;;;2.95;2.40;;;;;;;24.90;63.96;96957.25;5043046;28;20235;-52
2022/07/31 07:12:00;;;;;;;2.85;2.65;;;;;;;25.32;62.75;96951.97;5044285;28;20195;-54
2022/07/31 07:14:28;;;;;;;2.90;2.63;;;;;;;25.48;61.82;96954.00;5043298;28;20605;-52
2022/07/31 07:16:55;;;;;;;3.03;2.70;;;;;;;25.59;61.19;96956.81;5042684;28;20294;-54
2022/07/31 07:19:22;;;;;;;3.83;2.88;;;;;;;25.77;59.43;96957.81;5043118;28;20303;-53
2022/07/31 07:21:48;;;;;;;3.00;2.70;;;;;;;25.93;58.94;96951.75;5042813;28;20235;-53
2022/07/31 07:24:15;;;;;;;2.60;2.40;;;;;;;26.42;55.97;96945.94;5041990;28;20708;-53
2022/07/31 07:26:41;;;;;;;2.42;2.22;;;;;;;26.49;57.87;96952.09;5042761;28;20290;-54
2022/07/31 07:29:09;;;;;;;3.40;2.17;;;;;;;26.66;58.56;96942.16;5041850;28;20246;-53
2022/07/31 07:31:37;;;;;;;3.05;2.85;;;;;;;26.76;55.33;96940.72;5042799;28;20208;-57
2022/07/31 07:34:07;;;;;;;4.45;2.65;;;;;;;26.98;53.92;96939.91;5042356;28;20208;-56
2022/07/31 07:36:34;;;;;;;2.10;2.00;;;;;;;27.34;54.77;96941.47;5042024;28;20227;-54
2022/07/31 07:39:01;;;;;;;3.63;2.25;;;;;;;27.41;54.75;96938.63;5043556;28;20287;-53
2022/07/31 07:41:27;;;;;;;2.25;2.10;;;;;;;27.59;53.17;96936.56;5055161;28;20251;-54
2022/07/31 07:43:54;;;;;;;2.42;2.20;;;;;;;27.65;54.13;96930.16;5057054;28;20278;-55
2022/07/31 07:46:21;;;;;;;2.30;2.20;;;;;;;27.84;52.74;96928.06;5052211;28;20223;-55
2022/07/31 07:48:50;;;;;;;2.78;2.50;;;;;;;27.99;51.19;96922.84;5044882;28;20238;-54
2022/07/31 07:51:18;;;;;;;2.80;2.60;;;;;;;27.84;50.72;96913.63;5042939;28;20192;-53
2022/07/31 07:53:45;;;;;;;3.03;2.50;;;;;;;28.08;51.85;96924.16;5043258;28;20629;-53
2022/07/31 07:56:12;;;;;;;2.58;2.10;;;;;;;28.36;53.17;96917.78;5042190;28;20242;-55
2022/07/31 07:58:39;;;;;;;2.60;2.40;;;;;;;28.48;49.85;96923.97;5042164;28;20200;-58
2022/07/31 08:01:06;;;;;;;3.25;2.50;;;;;;;28.42;52.19;96935.84;5041500;28;20222;-55
2022/07/31 08:03:33;;;;;;;2.58;2.33;;;;;;;28.60;50.08;96921.13;5044950;28;20234;-56
2022/07/31 08:06:01;;;;;;;2.38;2.17;;;;;;;28.72;51.21;96919.19;5046550;28;20603;-57
2022/07/31 08:08:28;;;;;;;3.88;1.98;;;;;;;28.83;48.32;96923.69;5044820;28;20200;-56
2022/07/31 08:10:55;;;;;;;2.13;1.83;;;;;;;28.72;48.53;96913.72;5045852;28;20278;-56
2022/07/31 08:13:21;;;;;;;2.30;2.10;;;;;;;28.80;48.93;96915.19;5045250;28;20231;-56
2022/07/31 08:15:48;;;;;;;2.08;1.98;;;;;;;29.10;47.66;96912.88;5044947;28;20719;-55
2022/07/31 08:18:16;;;;;;;4.20;1.70;;;;;;;29.29;47.73;96908.78;5044709;28;20213;-58
2022/07/31 08:20:42;;;;;;;1.95;1.85;;;;;;;29.58;45.18;96920.28;5044491;28;20233;-59
2022/07/31 08:23:11;;;;;;;6.72;1.92;;;;;;;29.55;42.96;96913.41;5045011;28;20227;-55
2022/07/31 08:25:38;;;;;;;1.67;1.58;;;;;;;29.76;40.99;96917.16;5044693;28;20286;-56
2022/07/31 08:28:05;;;;;;;2.00;1.90;;;;;;;29.84;40.75;96911.28;5044998;28;20665;-55
2022/07/31 08:30:31;;;;;;;2.33;1.95;;;;;;;29.92;41.02;96902.66;5044158;28;20221;-55
2022/07/31 08:32:58;;;;;;;2.00;1.75;;;;;;;30.00;43.21;96910.38;5045589;28;20227;-56
2022/07/31 08:35:25;;;;;;;3.38;2.10;;;;;;;29.80;39.35;96903.84;5045357;28;20799;-58
2022/07/31 08:37:51;;;;;;;2.65;1.90;;;;;;;29.58;38.51;96907.44;5045442;28;20203;-53
2022/07/31 08:40:19;;;;;;;3.20;1.45;;;;;;;29.29;40.31;96902.50;5044900;28;20227;-52
2022/07/31 08:42:46;;;;;;;1.77;1.65;;;;;;;29.49;40.05;96905.44;5045139;28;20274;-57
2022/07/31 08:45:14;;;;;;;1.70;1.60;;;;;;;29.45;41.46;96907.03;5045964;28;20286;-56
2022/07/31 08:47:41;;;;;;;1.95;1.85;;;;;;;29.24;40.37;96903.22;5044765;28;20329;-57
2022/07/31 08:50:10;;;;;;;2.10;1.90;;;;;;;29.32;40.37;96897.38;5045525;28;20223;-55
2022/07/31 08:52:38;;;;;;;2.40;1.90;;;;;;;29.55;39.26;96896.22;5044707;28;20569;-55
2022/07/31 08:55:07;;;;;;;2.00;1.80;;;;;;;29.72;37.96;96902.44;5044466;28;20199;-54
2022/07/31 08:57:35;;;;;;;1.77;1.67;;;;;;;29.53;39.13;96904.69;5044443;28;20239;-53
2022/07/31 09:00:02;;;;;;;1.45;1.40;;;;;;;29.23;39.64;96901.56;5045167;28;20217;-53
2022/07/31 09:02:28;;;;;;;1.90;1.77;;;;;;;28.99;42.42;96905.63;5044736;28;20273;-55
2022/07/31 09:04:55;;;;;;;2.42;1.77;;;;;;;29.17;39.70;96897.97;5045134;28;20234;-53
2022/07/31 09:07:22;;;;;;;4.60;1.75;;;;;;;29.40;41.02;96902.38;5044959;28;20296;-55
2022/07/31 09:09:49;;;;;;;1.73;1.60;;;;;;;29.56;41.27;96904.16;5044360;28;20273;-54
2022/07/31 09:12:27;;;;;;;1.77;1.67;;;;;;;29.94;42.09;96899.63;5044854;28;20322;-54
2022/07/31 09:14:57;;;;;;;2.20;2.00;;;;;;;30.12;39.16;96904.72;5043773;28;20231;-53
2022/07/31 09:17:32;;;;;;;2.13;2.00;;;;;;;29.64;38.24;96906.44;5043792;28;20198;-55
2022/07/31 09:19:59;;;;;;;2.28;2.08;;;;;;;29.54;39.83;96911.78;5044717;28;20337;-53
2022/07/31 09:22:28;;;;;;;1.67;1.52;;;;;;;29.76;40.39;96913.66;5044570;28;20314;-52
2022/07/31 09:25:06;;;;;;;2.30;1.95;;;;;;;29.71;40.49;96910.84;5044654;28;20256;-53
2022/07/31 09:27:32;;;;;;;2.05;1.80;;;;;;;29.80;39.74;96909.28;5045407;28;20200;-53
2022/07/31 09:30:01;;;;;;;2.75;1.50;;;;;;;30.01;37.68;96911.16;5045262;28;20731;-54
2022/07/31 09:32:27;;;;;;;1.83;1.70;;;;;;;30.21;37.19;96911.34;5045410;28;20652;-54
2022/07/31 09:34:54;;;;;;;1.90;1.65;;;;;;;30.49;39.54;96916.50;5047382;28;20267;-55
2022/07/31 09:37:24;;;;;;;1.65;1.55;;;;;;;30.53;38.24;96914.91;5047165;28;20220;-54
2022/07/31 09:39:52;;;;;;;2.10;1.90;;;;;;;30.65;37.09;96908.41;5066341;28;20220;-53
2022/07/31 09:42:19;;;;;;;3.50;1.83;;;;;;;30.55;36.36;96917.34;5073654;28;20215;-53
2022/07/31 09:44:47;;;;;;;3.20;1.65;;;;;;;30.42;35.73;96913.19;5071501;28;20202;-54
2022/07/31 09:47:22;;;;;;;4.22;3.88;;;;;;;30.38;36.11;96912.03;5068711;28;20180;-55
2022/07/31 09:49:53;;;;;;;2.38;2.08;;;;;;;30.41;35.28;96916.13;5067913;28;20180;-53
2022/07/31 09:52:21;;;;;;;2.35;1.80;;;;;;;30.37;36.43;96915.00;5059511;28;20203;-53
2022/07/31 09:54:48;;;;;;;2.40;1.88;;;;;;;29.86;36.41;96902.88;5069039;28;20203;-52
2022/07/31 09:57:16;;;;;;;2.60;1.58;;;;;;;29.98;37.66;96903.50;5061085;28;20210;-54
2022/07/31 09:59:42;;;;;;;3.13;1.80;;;;;;;30.13;37.87;96899.00;5062219;28;20207;-53
2022/07/31 10:02:13;;;;;;;2.50;1.60;;;;;;;30.27;38.34;96893.09;5070723;28;20212;-54
2022/07/31 10:04:42;;;;;;;3.50;1.75;;;;;;;30.49;37.30;96897.41;5049596;28;20611;-54
2022/07/31 10:07:09;;;;;;;3.50;2.08;;;;;;;30.82;38.88;96900.88;5043325;28;20238;-54
2022/07/31 10:09:39;;;;;;;2.25;1.58;;;;;;;30.73;36.71;96891.53;5043055;28;20299;-56
2022/07/31 10:12:08;;;;;;;1.85;1.75;;;;;;;31.01;37.07;96885.69;5043226;28;20288;-56
2022/07/31 10:14:38;;;;;;;2.33;1.77;;;;;;;31.14;35.99;96882.47;5043955;28;20235;-55
2022/07/31 10:17:05;;;;;;;1.88;1.70;;;;;;;31.30;37.46;96886.91;5042436;28;20234;-56
2022/07/31 10:19:36;;;;;;;2.67;1.73;;;;;;;31.22;35.57;96889.31;5042687;28;20191;-57
2022/07/31 10:22:05;;;;;;;2.35;1.73;;;;;;;31.07;35.64;96881.91;5042742;28;20212;-55
2022/07/31 10:24:33;;;;;;;2.28;1.67;;;;;;;31.24;35.47;96879.78;5042646;28;20670;-57
2022/07/31 10:27:00;;;;;;;1.90;1.80;;;;;;;31.39;35.08;96873.53;5042446;28;20223;-55
2022/07/31 10:29:28;;;;;;;2.88;2.67;;;;;;;31.56;35.67;96877.72;5042494;28;20582;-55
2022/07/31 10:31:55;;;;;;;2.70;2.50;;;;;;;31.60;35.83;96878.00;5042420;28;20299;-56
2022/07/31 10:34:22;;;;;;;1.85;1.60;;;;;;;31.41;35.53;96874.91;5042517;28;20207;-56
2022/07/31 10:36:49;;;;;;;5.70;1.83;;;;;;;31.04;34.20;96857.84;5042644;28;20254;-55
2022/07/31 10:39:23;;;;;;;2.00;1.50;;;;;;;31.21;34.84;96865.84;5042416;28;20598;-56
2022/07/31 10:41:57;;;;;;;1.80;1.40;;;;;;;31.32;33.59;96854.63;5041681;28;20272;-54
2022/07/31 10:44:31;;;;;;;1.60;1.38;;;;;;;31.51;34.50;96849.50;5042347;28;20500;-55
2022/07/31 10:46:57;;;;;;;2.58;1.63;;;;;;;31.66;34.31;96851.47;5042758;28;20242;-55
2022/07/31 10:49:38;;;;;;;1.77;1.67;;;;;;;31.85;34.26;96849.84;5041126;28;20241;-54
2022/07/31 10:52:05;;;;;;;2.88;1.70;;;;;;;32.04;34.83;96853.66;5043254;28;20197;-57
2022/07/31 10:54:40;;;;;;;2.10;1.90;;;;;;;32.11;34.57;96854.25;5043385;28;20299;-56
2022/07/31 10:57:07;;;;;;;1.38;1.23;;;;;;;32.07;35.76;96850.41;5042297;28;20226;-57
2022/07/31 10:59:33;;;;;;;2.20;1.50;;;;;;;32.15;33.66;96841.66;5041426;28;20235;-57
2022/07/31 11:02:00;;;;;;;1.80;1.70;;;;;;;31.53;32.81;96839.94;5041229;28;20219;-56
2022/07/31 11:04:28;;;;;;;3.83;1.63;;;;;;;31.54;32.58;96827.94;5040214;28;20212;-56
2022/07/31 11:06:54;;;;;;;1.65;1.55;;;;;;;30.85;33.76;96829.34;5040658;28;20196;-55
2022/07/31 11:09:26;;;;;;;2.67;1.48;;;;;;;31.07;35.56;96838.19;5041342;28;20195;-55
2022/07/31 11:11:54;;;;;;;3.78;1.75;;;;;;;31.09;35.95;96836.81;5041728;28;20325;-56
2022/07/31 11:14:31;;;;;;;1.73;1.63;;;;;;;31.17;33.26;96826.47;5041290;28;20540;-55
2022/07/31 11:16:58;;;;;;;1.70;1.60;;;;;;;30.87;36.78;96832.59;5042187;28;20218;-55
2022/07/31 11:19:24;;;;;;;1.63;1.52;;;;;;;30.26;33.57;96832.25;5041622;28;20207;-56
2022/07/31 11:21:56;;;;;;;2.92;1.60;;;;;;;29.84;36.19;96828.63;5041820;28;20222;-54
2022/07/31 11:24:23;;;;;;;1.83;1.55;;;;;;;29.83;38.69;96827.00;5042683;28;20636;-56
2022/07/31 11:26:50;;;;;;;3.85;1.60;;;;;;;30.03;37.38;96827.19;5040956;28;20302;-55
2022/07/31 11:29:28;;;;;;;1.70;1.60;;;;;;;30.23;36.74;96821.03;5040464;28;20203;-56
2022/07/31 11:31:55;;;;;;;1.50;1.50;;;;;;;29.85;34.85;96820.22;5041993;28;20233;-55
2022/07/31 11:34:21;;;;;;;2.22;1.75;;;;;;;29.54;38.59;96815.56;5041996;28;20200;-56
2022/07/31 11:36:48;;;;;;;1.73;1.63;;;;;;;29.33;37.13;96805.56;5041546;28;20290;-55